Prince Albert, Canada
Current Conditions -  °F | °C
As of 8:20 AM on Monday 24 Nov 2014 (Local Time) from CYPA Reporting Station
Light Snow Light Snow  
Wind Chill:   Ceiling: 3300
Heat Index:   Visibility: 2mi
Dew Point:   Wind: 0mph
Humidity: 92%   Direction: NA
Pressure: 29.87"   Gusts: NA
Location:  53.2°N, 105.75°W
Report Text: CYPA 241420Z 00000KT 2SM -SN FEW010 OVC033 M13/M14 A2987 RMK SC2SC6 SLP155
Loading
Personal Weather Stations






























Interactive Weather Map New forecast layout! Learn more

10-Day Weather Forecast

Advertisements
Track Severe Weather on mobile